Time;durP1;ratioP1;P1;durP2;ratioP2;P2;SDS_P1;SDS_P2;PMS_P1;PMS_P2;Temp;Humidity;BMP_temperature;BMP_pressure;BME280_temperature;BME280_humidity;BME280_pressure;Samples;Min_cycle;Max_cycle;Signal;HPM_P1;HPM_P2
2022/05/14 00:00:29;;;;;;;4.88;3.60;;;;;;;16.27;64.95;94548.69;5048938;28;20227;-74
2022/05/14 00:02:57;;;;;;;6.07;3.92;;;;;;;16.18;65.25;94544.66;5039079;28;20211;-75
2022/05/14 00:05:26;;;;;;;8.20;3.88;;;;;;;16.12;65.33;94552.38;5036463;28;20721;-75
2022/05/14 00:07:53;;;;;;;9.43;4.18;;;;;;;16.11;65.00;94550.78;5040579;28;20243;-75
2022/05/14 00:10:22;;;;;;;8.65;4.25;;;;;;;16.11;65.05;94539.88;5045763;28;20306;-75
2022/05/14 00:13:04;;;;;;;8.10;5.20;;;;;;;16.10;65.31;94541.00;5050188;28;20290;-74
2022/05/14 00:15:31;;;;;;;11.27;6.20;;;;;;;16.08;65.35;94545.25;5044976;28;20224;-75
2022/05/14 00:17:58;;;;;;;7.00;5.55;;;;;;;16.10;65.27;94538.28;5041629;28;20208;-75
2022/05/14 00:20:28;;;;;;;7.22;4.20;;;;;;;16.08;65.71;94546.06;5036831;28;20223;-75
2022/05/14 00:22:56;;;;;;;6.72;5.22;;;;;;;16.12;65.86;94535.97;5038122;28;20254;-74
2022/05/14 00:25:23;;;;;;;6.72;4.35;;;;;;;16.03;65.46;94543.63;5043173;28;20211;-74
2022/05/14 00:27:50;;;;;;;4.63;3.83;;;;;;;15.94;65.67;94540.34;5042354;28;20231;-74
2022/05/14 00:30:20;;;;;;;7.85;5.20;;;;;;;15.81;65.94;94541.66;5036476;28;20199;-75
2022/05/14 00:32:48;;;;;;;7.20;4.22;;;;;;;15.78;66.00;94542.38;5037558;28;20200;-74
2022/05/14 00:35:15;;;;;;;7.80;4.38;;;;;;;15.73;66.70;94542.66;5043336;28;20216;-75
2022/05/14 00:37:44;;;;;;;6.47;4.05;;;;;;;15.66;67.16;94537.88;5044208;28;20254;-74
2022/05/14 00:40:14;;;;;;;7.15;3.97;;;;;;;15.81;66.41;94530.75;5050077;28;20200;-75
2022/05/14 00:42:42;;;;;;;10.23;4.30;;;;;;;15.86;66.13;94533.16;5037115;28;20197;-74
2022/05/14 00:45:12;;;;;;;7.28;4.03;;;;;;;15.71;66.42;94520.41;5061988;28;20251;-74
2022/05/14 00:47:40;;;;;;;7.55;4.53;;;;;;;15.79;65.60;94533.03;5051168;28;20271;-74
2022/05/14 00:50:10;;;;;;;6.00;3.88;;;;;;;15.98;65.21;94530.28;5043791;28;20211;-74
2022/05/14 00:52:37;;;;;;;10.73;4.40;;;;;;;15.88;65.11;94537.09;5054278;28;20219;-75
2022/05/14 00:55:07;;;;;;;5.97;4.13;;;;;;;15.76;65.33;94525.56;5053588;28;20204;-74
2022/05/14 00:57:37;;;;;;;4.68;3.28;;;;;;;15.76;65.28;94533.75;5052954;28;20199;-75
2022/05/14 01:00:07;;;;;;;5.90;3.90;;;;;;;15.74;65.02;94530.59;5041561;28;20227;-74
2022/05/14 01:02:34;;;;;;;8.00;4.32;;;;;;;15.75;65.57;94532.19;5046850;28;20200;-74
2022/05/14 01:05:02;;;;;;;8.50;5.57;;;;;;;15.79;65.46;94533.03;5045786;28;20247;-74
2022/05/14 01:07:30;;;;;;;8.05;3.85;;;;;;;15.67;66.13;94535.94;5040162;28;20663;-74
2022/05/14 01:10:00;;;;;;;8.90;4.28;;;;;;;15.62;66.85;94540.53;5053347;28;20203;-74
2022/05/14 01:12:30;;;;;;;7.65;4.40;;;;;;;15.60;67.11;94536.56;5040445;28;20207;-74
2022/05/14 01:15:08;;;;;;;7.03;4.47;;;;;;;15.55;67.23;94534.94;5053076;28;20192;-74
2022/05/14 01:17:35;;;;;;;8.32;4.57;;;;;;;15.53;67.21;94537.22;5033696;28;20200;-75
2022/05/14 01:20:02;;;;;;;6.30;4.18;;;;;;;15.46;67.58;94530.81;5049142;28;20215;-74
2022/05/14 01:22:38;;;;;;;6.97;4.18;;;;;;;15.40;67.68;94533.06;5053355;28;20242;-74
2022/05/14 01:27:59;;;;;;;7.45;5.00;;;;;;;15.25;68.97;94531.19;5047065;28;20270;-74
2022/05/14 01:30:26;;;;;;;7.00;4.78;;;;;;;15.10;69.52;94526.59;5052840;28;20212;-74
2022/05/14 01:33:05;;;;;;;7.07;4.60;;;;;;;15.15;69.22;94529.03;5053436;28;20219;-74
2022/05/14 01:35:33;;;;;;;7.07;5.93;;;;;;;15.16;69.20;94525.16;5053308;28;20262;-74
2022/05/14 01:38:01;;;;;;;6.78;4.32;;;;;;;15.12;69.28;94521.56;5053135;28;20200;-74
2022/05/14 01:40:28;;;;;;;10.80;4.75;;;;;;;15.04;69.54;94519.81;5042313;28;20201;-74
2022/05/14 01:42:55;;;;;;;6.78;4.18;;;;;;;15.03;69.47;94513.63;5049042;28;20212;-74
2022/05/14 01:45:24;;;;;;;7.47;3.88;;;;;;;15.06;69.50;94520.25;5061400;28;20242;-74
2022/05/14 01:47:51;;;;;;;8.57;4.53;;;;;;;15.07;68.92;94513.66;5047591;28;20588;-74
2022/05/14 01:50:18;;;;;;;7.28;4.38;;;;;;;15.07;69.17;94508.22;5044322;28;20202;-74
2022/05/14 01:52:45;;;;;;;8.63;6.18;;;;;;;15.09;69.45;94511.38;5039533;28;20204;-74
2022/05/14 01:55:12;;;;;;;7.63;4.65;;;;;;;15.01;69.55;94507.72;5041315;28;20201;-74
2022/05/14 01:57:39;;;;;;;7.30;4.35;;;;;;;14.88;69.96;94515.25;5050128;28;20199;-74
2022/05/14 02:00:07;;;;;;;10.70;4.82;;;;;;;14.87;70.14;94508.22;5052072;28;20223;-74
2022/05/14 02:02:36;;;;;;;9.65;4.38;;;;;;;14.85;70.13;94506.97;5052329;28;20216;-74
2022/05/14 02:05:02;;;;;;;7.97;5.05;;;;;;;14.80;70.38;94520.88;5052484;28;20253;-74
2022/05/14 02:07:29;;;;;;;7.18;4.63;;;;;;;14.78;70.36;94517.72;5038382;28;20232;-75
2022/05/14 02:09:57;;;;;;;6.47;4.32;;;;;;;14.81;70.32;94514.28;5039700;28;20202;-75
2022/05/14 02:12:23;;;;;;;6.05;4.25;;;;;;;14.85;70.19;94515.94;5051304;28;20224;-75
2022/05/14 02:14:50;;;;;;;7.15;5.25;;;;;;;14.86;70.30;94519.47;5052254;28;20230;-75
2022/05/14 02:17:17;;;;;;;9.15;4.43;;;;;;;14.77;70.10;94506.03;5051695;28;20668;-75
2022/05/14 02:19:47;;;;;;;8.70;5.65;;;;;;;14.73;70.27;94510.63;5052087;28;20218;-74
2022/05/14 02:22:14;;;;;;;6.60;4.60;;;;;;;14.76;70.44;94515.34;5039207;28;20269;-75
2022/05/14 02:24:41;;;;;;;6.05;4.25;;;;;;;14.71;70.74;94512.91;5051248;28;20207;-75
2022/05/14 02:27:08;;;;;;;6.00;4.05;;;;;;;14.79;70.55;94514.63;5039210;28;20322;-75
2022/05/14 02:32:16;;;;;;;11.80;4.88;;;;;;;14.72;71.06;94511.78;5051137;28;20219;-75
2022/05/14 02:34:43;;;;;;;5.00;4.00;;;;;;;14.66;71.01;94515.91;5038343;28;20219;-75
2022/05/14 02:37:11;;;;;;;4.88;4.00;;;;;;;14.65;71.29;94510.81;5051513;28;20215;-75
2022/05/14 02:39:38;;;;;;;6.10;4.32;;;;;;;14.57;71.44;94497.03;5038186;28;20200;-75
2022/05/14 02:42:06;;;;;;;8.32;5.65;;;;;;;14.55;71.51;94504.78;5040964;28;20204;-75
2022/05/14 02:44:32;;;;;;;9.68;4.75;;;;;;;14.61;71.54;94508.03;5060184;28;20330;-75
2022/05/14 02:47:00;;;;;;;8.40;4.63;;;;;;;14.59;71.65;94515.75;5051306;28;20251;-75
2022/05/14 02:49:26;;;;;;;7.28;4.40;;;;;;;14.58;71.77;94508.72;5038241;28;20199;-75
2022/05/14 02:51:53;;;;;;;6.05;4.32;;;;;;;14.51;72.14;94503.09;5041189;28;20215;-75
2022/05/14 02:54:22;;;;;;;6.53;4.55;;;;;;;14.46;72.26;94511.56;5045062;28;20201;-75
2022/05/14 02:56:48;;;;;;;6.22;4.43;;;;;;;14.48;72.37;94515.53;5042741;28;20226;-75
2022/05/14 02:59:15;;;;;;;7.53;4.07;;;;;;;14.34;72.21;94519.81;5037707;28;20223;-75
2022/05/14 03:01:48;;;;;;;7.13;4.40;;;;;;;14.19;73.03;94519.50;5040185;28;20297;-75
2022/05/14 03:04:16;;;;;;;9.23;4.60;;;;;;;14.35;72.81;94518.69;5044691;28;20313;-75
2022/05/14 03:06:42;;;;;;;6.90;4.50;;;;;;;14.43;72.43;94521.25;5043721;28;20203;-75
2022/05/14 03:09:10;;;;;;;7.03;4.63;;;;;;;14.43;72.58;94512.28;5037242;28;20203;-75
2022/05/14 03:11:39;;;;;;;10.45;5.18;;;;;;;14.46;72.35;94522.47;5038487;28;20217;-75
2022/05/14 03:14:05;;;;;;;4.82;4.05;;;;;;;14.32;72.29;94522.13;5044417;28;20667;-75
2022/05/14 03:16:33;;;;;;;8.70;4.90;;;;;;;14.41;72.43;94522.72;5044044;28;20200;-75
2022/05/14 03:18:59;;;;;;;7.90;4.57;;;;;;;14.49;72.15;94516.28;5037801;28;20200;-76
2022/05/14 03:21:26;;;;;;;8.25;4.57;;;;;;;14.56;71.73;94527.38;5037727;28;20203;-76
2022/05/14 03:23:53;;;;;;;6.40;4.18;;;;;;;14.56;71.74;94521.91;5037835;28;20200;-75
2022/05/14 03:26:20;;;;;;;7.03;4.57;;;;;;;14.53;71.93;94531.59;5037996;28;20290;-75
2022/05/14 03:28:49;;;;;;;10.65;4.85;;;;;;;14.65;71.57;94519.78;5044093;28;20238;-75
2022/05/14 03:31:16;;;;;;;9.30;5.25;;;;;;;14.40;71.83;94527.41;5044112;28;20259;-75
2022/05/14 03:33:43;;;;;;;10.32;5.38;;;;;;;14.33;72.30;94529.16;5043050;28;20224;-75
2022/05/14 03:36:11;;;;;;;8.50;5.32;;;;;;;14.54;71.89;94518.75;5044859;28;20212;-75
2022/05/14 03:38:39;;;;;;;8.57;4.45;;;;;;;14.78;70.77;94529.41;5050444;28;20289;-75
2022/05/14 03:41:06;;;;;;;6.53;4.65;;;;;;;14.93;70.63;94531.31;5048709;28;20203;-75
2022/05/14 03:43:33;;;;;;;7.85;5.10;;;;;;;15.12;70.19;94532.47;5045870;28;20241;-75
2022/05/14 03:46:02;;;;;;;10.00;6.13;;;;;;;15.54;69.28;94532.56;5054863;28;20227;-75
2022/05/14 03:48:29;;;;;;;7.40;4.53;;;;;;;15.99;67.82;94532.63;5041059;28;20228;-75
2022/05/14 03:50:56;;;;;;;10.73;5.45;;;;;;;16.37;66.84;94530.13;5044420;28;20203;-75
2022/05/14 03:53:23;;;;;;;6.82;4.88;;;;;;;17.26;64.83;94537.66;5040115;28;20203;-75
2022/05/14 03:55:50;;;;;;;10.48;5.53;;;;;;;18.20;61.49;94530.88;5037068;28;21463;-75
2022/05/14 03:58:17;;;;;;;6.57;4.80;;;;;;;18.80;59.39;94520.44;5040622;28;20216;-75
2022/05/14 04:00:44;;;;;;;7.55;5.38;;;;;;;19.42;57.70;94516.81;5043921;28;20559;-74
2022/05/14 04:03:13;;;;;;;10.50;6.03;;;;;;;19.75;56.34;94507.53;5040430;28;20223;-75
2022/05/14 04:05:40;;;;;;;10.35;5.32;;;;;;;20.02;55.55;94510.75;5036887;28;20211;-75
2022/05/14 04:08:07;;;;;;;7.70;5.32;;;;;;;19.94;55.67;94525.66;5040529;28;20239;-76
2022/05/14 04:10:34;;;;;;;8.63;5.25;;;;;;;20.29;55.28;94519.41;5048046;28;20200;-75
2022/05/14 04:13:02;;;;;;;6.32;5.13;;;;;;;20.26;54.89;94518.22;5050556;28;20215;-76
2022/05/14 04:15:30;;;;;;;9.82;7.10;;;;;;;19.85;54.83;94524.06;5045763;28;20440;-76
2022/05/14 04:17:57;;;;;;;11.98;6.95;;;;;;;19.77;55.46;94530.72;5042179;28;20211;-77
2022/05/14 04:20:25;;;;;;;11.10;6.45;;;;;;;19.88;55.80;94528.78;5053457;28;20206;-75
2022/05/14 04:22:52;;;;;;;7.13;6.38;;;;;;;19.53;56.24;94536.94;5042561;28;20212;-74
2022/05/14 04:25:20;;;;;;;9.57;6.13;;;;;;;19.54;56.31;94530.25;5047572;28;20212;-74
2022/05/14 04:27:47;;;;;;;10.95;6.50;;;;;;;19.87;56.16;94538.22;5046762;28;20266;-75
2022/05/14 04:30:15;;;;;;;11.45;6.82;;;;;;;20.58;53.95;94549.34;5040821;28;20223;-77
2022/05/14 04:32:43;;;;;;;10.70;7.35;;;;;;;20.93;52.59;94542.22;5041382;28;20207;-74
2022/05/14 04:35:11;;;;;;;8.85;6.43;;;;;;;21.56;50.75;94551.56;5047224;28;20211;-75
2022/05/14 04:37:39;;;;;;;8.30;6.22;;;;;;;22.15;49.82;94548.94;5047790;28;20208;-75
2022/05/14 04:40:09;;;;;;;9.75;7.05;;;;;;;22.68;48.39;94543.84;5054262;28;20208;-75
2022/05/14 04:42:38;;;;;;;8.73;6.55;;;;;;;23.05;47.39;94550.66;5054237;28;20613;-75
2022/05/14 04:45:05;;;;;;;11.05;7.50;;;;;;;22.43;48.55;94559.78;5064650;28;20709;-76
2022/05/14 04:47:32;;;;;;;10.95;7.10;;;;;;;22.97;47.81;94554.66;5051855;28;20220;-76
2022/05/14 04:49:59;;;;;;;8.20;7.32;;;;;;;22.75;47.57;94558.78;5042688;28;20566;-76
2022/05/14 04:52:26;;;;;;;15.32;7.65;;;;;;;22.57;47.79;94554.16;5040486;28;20204;-76
2022/05/14 04:54:54;;;;;;;9.95;6.78;;;;;;;21.64;49.99;94564.13;5053688;28;20277;-75
2022/05/14 04:57:22;;;;;;;10.60;7.00;;;;;;;20.69;51.65;94565.06;5053862;28;20226;-75
2022/05/14 04:59:48;;;;;;;10.25;6.80;;;;;;;19.81;54.16;94570.03;5053566;28;20221;-75
2022/05/14 05:05:00;;;;;;;10.20;7.00;;;;;;;18.92;57.04;94571.47;5045451;28;20202;-76
2022/05/14 05:07:27;;;;;;;8.55;7.22;;;;;;;18.39;58.29;94580.06;5040052;28;20203;-75
2022/05/14 05:09:55;;;;;;;9.15;7.40;;;;;;;18.30;59.00;94579.59;5041082;28;20231;-75
2022/05/14 05:12:22;;;;;;;10.32;7.70;;;;;;;18.17;59.29;94581.03;5047138;28;20291;-76
2022/05/14 05:14:49;;;;;;;9.63;7.00;;;;;;;18.12;60.66;94581.34;5046079;28;20203;-75
2022/05/14 05:17:16;;;;;;;11.05;7.40;;;;;;;17.60;61.78;94585.84;5039992;28;20574;-76
2022/05/14 05:19:43;;;;;;;11.27;8.07;;;;;;;17.51;62.14;94582.59;5040361;28;20200;-76
2022/05/14 05:22:10;;;;;;;12.63;7.68;;;;;;;17.62;61.68;94583.53;5053166;28;20294;-76
2022/05/14 05:24:37;;;;;;;9.35;7.53;;;;;;;17.50;61.82;94586.47;5052839;28;20216;-76
2022/05/14 05:27:06;;;;;;;11.70;8.52;;;;;;;17.34;62.97;94583.16;5040221;28;20203;-76
2022/05/14 05:29:33;;;;;;;10.50;8.00;;;;;;;18.58;59.97;94586.50;5039555;28;20232;-76
2022/05/14 05:32:00;;;;;;;9.05;7.28;;;;;;;19.29;56.81;94576.00;5052020;28;20203;-75
2022/05/14 05:34:28;;;;;;;7.53;6.78;;;;;;;19.73;55.16;94575.84;5052860;28;20960;-75
2022/05/14 05:37:01;;;;;;;11.02;7.47;;;;;;;19.00;57.67;94584.06;5052820;28;20382;-75
2022/05/14 05:39:28;;;;;;;12.65;7.93;;;;;;;18.83;58.31;94595.75;5039305;28;20843;-75
2022/05/14 05:41:58;;;;;;;13.20;8.43;;;;;;;18.67;59.24;94603.44;5052744;28;20698;-74
2022/05/14 05:44:27;;;;;;;9.00;7.35;;;;;;;18.44;59.69;94601.66;5050230;28;20231;-75
2022/05/14 05:46:54;;;;;;;10.60;8.45;;;;;;;18.52;59.85;94593.47;5042002;28;20235;-75
2022/05/14 05:49:24;;;;;;;9.32;7.40;;;;;;;18.83;58.74;94601.22;5049314;28;20228;-76
2022/05/14 05:51:51;;;;;;;10.15;7.93;;;;;;;19.07;57.96;94610.81;5042515;28;20665;-74
2022/05/14 05:57:08;;;;;;;10.88;7.85;;;;;;;19.04;57.71;94606.06;5052428;28;20267;-75
2022/05/14 05:59:37;;;;;;;9.65;7.50;;;;;;;19.36;56.41;94598.03;5039902;28;20545;-76
2022/05/14 06:02:04;;;;;;;11.77;7.10;;;;;;;21.36;51.85;94580.75;5051032;28;20216;-77
2022/05/14 06:04:34;;;;;;;8.18;6.82;;;;;;;23.44;47.48;94572.38;5041018;28;20211;-77
2022/05/14 06:07:01;;;;;;;9.73;6.78;;;;;;;24.73;44.78;94572.31;5037392;28;20200;-79
2022/05/14 06:09:29;;;;;;;10.60;7.10;;;;;;;26.34;41.39;94560.66;5040515;28;20240;-75
2022/05/14 06:11:58;;;;;;;8.68;7.10;;;;;;;27.82;38.23;94562.97;5039169;28;20270;-76
2022/05/14 06:14:26;;;;;;;9.23;6.57;;;;;;;27.40;38.70;94565.66;5042590;28;20564;-78
2022/05/14 06:16:54;;;;;;;10.85;7.85;;;;;;;27.12;39.38;94580.28;5045265;28;20253;-75
2022/05/14 06:19:21;;;;;;;10.52;7.15;;;;;;;27.08;39.20;94576.81;5041438;28;20230;-76
2022/05/14 06:21:48;;;;;;;12.35;7.28;;;;;;;27.36;39.24;94573.28;5038258;28;20208;-78
2022/05/14 06:24:15;;;;;;;9.98;7.07;;;;;;;27.75;39.16;94577.06;5042734;28;20211;-80
2022/05/14 06:26:42;;;;;;;9.32;7.22;;;;;;;27.59;39.58;94581.47;5048454;28;20265;-79
2022/05/14 06:29:09;;;;;;;8.80;7.28;;;;;;;28.00;38.39;94579.97;5051932;28;20238;-77
2022/05/14 06:31:37;;;;;;;8.63;7.30;;;;;;;28.26;37.81;94578.06;5051883;28;20224;-79
2022/05/14 06:34:05;;;;;;;10.15;7.50;;;;;;;29.04;36.57;94569.28;5041834;28;20731;-82
2022/05/14 06:36:33;;;;;;;10.05;7.18;;;;;;;28.40;37.44;94576.84;5044991;28;20200;-85
2022/05/14 06:39:00;;;;;;;14.38;7.93;;;;;;;27.92;38.58;94581.38;5043410;28;20206;-79
2022/05/14 06:41:27;;;;;;;10.77;7.43;;;;;;;28.41;37.54;94581.19;5037800;28;20905;-79
2022/05/14 06:43:54;;;;;;;13.98;8.45;;;;;;;29.28;36.33;94562.88;5058444;28;20202;-85
2022/05/14 06:46:21;;;;;;;10.93;8.02;;;;;;;29.37;35.91;94576.16;5052223;28;20545;-78
2022/05/14 06:48:48;;;;;;;13.45;7.82;;;;;;;30.51;35.51;94572.09;5038656;28;20714;-79
2022/05/14 06:51:21;;;;;;;12.07;7.32;;;;;;;28.58;38.13;94568.72;5043145;28;20200;-79
2022/05/14 06:53:50;;;;;;;11.32;7.60;;;;;;;27.52;39.87;94595.53;5041426;28;20224;-78
2022/05/14 06:56:19;;;;;;;9.70;7.43;;;;;;;25.92;43.00;94595.63;5043557;28;20192;-74
2022/05/14 06:58:49;;;;;;;13.13;6.97;;;;;;;27.67;40.54;94595.19;5047954;28;20249;-83
2022/05/14 07:01:17;;;;;;;6.97;5.85;;;;;;;27.55;40.24;94591.88;5049443;28;20610;-81
2022/05/14 07:06:40;;;;;;;9.60;6.57;;;;;;;28.99;38.06;94579.78;5045915;28;20649;-78
2022/05/14 07:09:10;;;;;;;7.55;5.07;;;;;;;28.25;38.34;94580.06;5047980;28;20335;-77
2022/05/14 07:11:40;;;;;;;7.93;6.50;;;;;;;27.49;40.84;94593.63;5044065;28;20195;-74
2022/05/14 07:14:07;;;;;;;7.43;6.65;;;;;;;26.13;43.55;94594.38;5050162;28;20203;-75
2022/05/14 07:16:34;;;;;;;9.68;6.72;;;;;;;25.60;44.70;94598.19;5050035;28;20196;-79
2022/05/14 07:19:01;;;;;;;10.55;6.88;;;;;;;26.30;42.98;94592.47;5047005;28;20237;-76
2022/05/14 07:21:30;;;;;;;8.38;7.15;;;;;;;26.77;42.45;94588.25;5049615;28;20672;-76
2022/05/14 07:23:56;;;;;;;11.18;7.00;;;;;;;26.22;43.73;94602.94;5049733;28;20547;-85
2022/05/14 07:26:23;;;;;;;7.18;6.03;;;;;;;26.30;42.45;94603.59;5049877;28;21146;-76
2022/05/14 07:28:54;;;;;;;8.35;6.15;;;;;;;25.66;45.08;94607.63;5040426;28;20224;-76
2022/05/14 07:31:22;;;;;;;8.10;6.53;;;;;;;26.18;43.76;94608.56;5048370;28;20705;-79
2022/05/14 07:33:51;;;;;;;7.18;6.45;;;;;;;25.14;45.49;94613.66;5050411;28;20277;-76
2022/05/14 07:36:21;;;;;;;9.52;6.15;;;;;;;25.69;45.16;94604.00;5050446;28;20207;-76
2022/05/14 07:38:50;;;;;;;12.38;6.90;;;;;;;25.91;44.12;94610.72;5050257;28;20191;-77
2022/05/14 07:41:23;;;;;;;8.13;7.03;;;;;;;25.53;44.88;94618.53;5049186;28;20263;-72
2022/05/14 07:43:53;;;;;;;8.77;6.20;;;;;;;25.34;45.25;94611.72;5056874;28;20191;-80
2022/05/14 07:46:26;;;;;;;10.27;6.28;;;;;;;25.20;45.17;94606.41;5048282;28;20322;-76
2022/05/14 07:48:54;;;;;;;10.40;6.57;;;;;;;24.97;45.90;94609.19;5046482;28;20269;-76
2022/05/14 07:51:22;;;;;;;9.55;6.70;;;;;;;25.19;45.34;94620.72;5046782;28;20211;-75
2022/05/14 07:53:50;;;;;;;9.95;6.30;;;;;;;24.50;47.63;94617.38;5047741;28;20274;-73
2022/05/14 07:56:17;;;;;;;8.60;6.65;;;;;;;23.85;48.34;94630.44;5046541;28;20207;-71
2022/05/14 07:58:44;;;;;;;11.15;7.93;;;;;;;24.00;49.08;94620.78;5046352;28;20227;-72
2022/05/14 08:01:11;;;;;;;10.27;7.00;;;;;;;24.18;48.83;94619.78;5048638;28;20200;-79
2022/05/14 08:03:38;;;;;;;8.32;6.45;;;;;;;25.10;46.86;94618.47;5047380;28;20691;-78
2022/05/14 08:06:08;;;;;;;10.57;7.57;;;;;;;25.57;45.75;94621.22;5045760;28;20220;-74
2022/05/14 08:08:35;;;;;;;8.20;6.45;;;;;;;25.13;45.05;94618.44;5045312;28;20228;-83
2022/05/14 08:11:04;;;;;;;11.35;7.47;;;;;;;25.10;46.18;94612.94;5048049;28;20215;-80
2022/05/14 08:13:34;;;;;;;8.30;7.00;;;;;;;25.27;45.44;94617.41;5044059;28;20203;-75
2022/05/14 08:16:02;;;;;;;8.02;6.35;;;;;;;26.36;44.05;94613.00;5049112;28;20228;-73
2022/05/14 08:18:29;;;;;;;8.15;6.90;;;;;;;26.15;43.40;94608.63;5044609;28;20731;-75
2022/05/14 08:20:56;;;;;;;9.23;6.45;;;;;;;26.78;42.05;94595.38;5046015;28;20203;-74
2022/05/14 08:26:09;;;;;;;9.43;7.07;;;;;;;26.81;43.68;94594.50;5044929;28;20445;-77
2022/05/14 08:28:36;;;;;;;8.20;6.18;;;;;;;25.82;43.71;94604.94;5042048;28;20307;-70
2022/05/14 08:31:03;;;;;;;7.45;6.32;;;;;;;25.90;43.38;94595.25;5042794;28;20246;-73
2022/05/14 08:33:30;;;;;;;7.90;6.65;;;;;;;26.50;43.83;94587.69;5037066;28;20230;-77
2022/05/14 08:35:57;;;;;;;8.70;6.43;;;;;;;27.14;42.21;94591.75;5046457;28;20222;-78
2022/05/14 08:38:24;;;;;;;7.22;6.40;;;;;;;27.56;42.18;94587.91;5045728;28;20659;-79
2022/05/14 08:40:57;;;;;;;7.28;6.38;;;;;;;28.02;40.67;94590.66;5042246;28;20200;-84
2022/05/14 08:43:31;;;;;;;9.30;6.85;;;;;;;27.89;40.33;94587.81;5047889;28;20184;-80
2022/05/14 08:45:59;;;;;;;10.57;6.80;;;;;;;28.69;39.62;94583.13;5048532;28;20242;-79
2022/05/14 08:48:29;;;;;;;9.17;6.90;;;;;;;28.29;40.28;94583.50;5049185;28;20430;-80
2022/05/14 08:51:02;;;;;;;7.50;6.68;;;;;;;27.52;41.82;94592.75;5049432;28;20253;-77
2022/05/14 08:53:30;;;;;;;15.20;6.80;;;;;;;27.31;41.49;94593.31;5049284;28;20231;-77
2022/05/14 08:56:17;;;;;;;8.68;6.22;;;;;;;27.71;41.04;94593.09;5043635;28;20314;-79
2022/05/14 08:58:58;;;;;;;8.98;6.50;;;;;;;28.06;40.13;94586.53;5048044;28;20661;-79
2022/05/14 09:01:28;;;;;;;9.10;6.20;;;;;;;28.68;40.26;94570.41;5040055;28;20200;-79
2022/05/14 09:03:55;;;;;;;8.55;7.00;;;;;;;28.71;39.78;94569.50;5043246;28;20516;-80
2022/05/14 09:06:23;;;;;;;10.38;6.90;;;;;;;27.32;42.72;94578.19;5047331;28;20210;-75
2022/05/14 09:08:50;;;;;;;9.23;6.68;;;;;;;27.26;43.48;94579.94;5050143;28;20224;-81
2022/05/14 09:11:23;;;;;;;14.55;7.63;;;;;;;27.20;42.48;94598.34;5042983;28;20532;-79
2022/05/14 09:13:54;;;;;;;8.27;6.80;;;;;;;27.05;42.48;94591.59;5039251;28;20239;-78
2022/05/14 09:16:25;;;;;;;9.65;7.45;;;;;;;26.39;43.71;94606.56;5052090;28;20188;-77
2022/05/14 09:18:53;;;;;;;8.63;7.30;;;;;;;26.14;44.44;94618.97;5039252;28;20212;-82
2022/05/14 09:21:22;;;;;;;9.40;7.35;;;;;;;26.69;44.45;94609.06;5053351;28;20318;-79
2022/05/14 09:23:54;;;;;;;14.23;8.40;;;;;;;26.94;44.77;94607.72;5039296;28;20741;-76
2022/05/14 09:26:26;;;;;;;9.15;6.95;;;;;;;26.43;44.65;94605.28;5052428;28;20641;-75
2022/05/14 09:28:57;;;;;;;9.85;7.40;;;;;;;25.99;45.02;94603.00;5052602;28;20740;-78
2022/05/14 09:31:28;;;;;;;9.00;6.82;;;;;;;25.98;46.75;94610.56;5039475;28;20220;-78
2022/05/14 09:34:05;;;;;;;10.60;7.00;;;;;;;25.99;45.33;94595.47;5042758;28;20665;-79
2022/05/14 09:36:32;;;;;;;11.95;8.35;;;;;;;26.33;44.48;94586.06;5050803;28;20211;-79
2022/05/14 09:39:06;;;;;;;12.35;8.57;;;;;;;26.94;43.59;94591.03;5052500;28;20213;-79
2022/05/14 09:41:41;;;;;;;9.13;6.88;;;;;;;27.76;41.60;94592.56;5046548;28;20204;-75
2022/05/14 09:44:16;;;;;;;8.40;7.35;;;;;;;27.33;41.66;94579.75;5046608;28;20542;-80
2022/05/14 09:46:43;;;;;;;12.75;8.60;;;;;;;26.38;44.35;94578.00;5051401;28;20325;-81
2022/05/14 09:49:18;;;;;;;9.00;5.93;;;;;;;25.26;46.60;94593.66;5039138;28;20699;-77
2022/05/14 09:51:51;;;;;;;14.90;10.48;;;;;;;24.04;53.04;94599.38;5042047;28;20192;-74
2022/05/14 09:54:22;;;;;;;9.85;7.00;;;;;;;23.57;56.51;94603.84;5032027;28;20199;-76
2022/05/14 09:57:12;;;;;;;8.38;7.43;;;;;;;22.98;58.89;94619.78;5052022;28;20243;-76
2022/05/14 09:59:56;;;;;;;9.73;7.65;;;;;;;22.61;58.03;94621.22;5052166;28;20208;-72
2022/05/14 10:02:32;;;;;;;11.57;7.80;;;;;;;22.69;59.45;94628.25;5052076;28;20676;-72
2022/05/14 10:05:10;;;;;;;13.02;8.55;;;;;;;22.51;59.88;94627.59;5051802;28;20821;-74
2022/05/14 10:07:44;;;;;;;9.57;7.72;;;;;;;22.39;59.86;94636.34;5039620;28;20198;-74
2022/05/14 10:10:20;;;;;;;10.63;7.80;;;;;;;22.21;59.59;94630.13;5051755;28;20231;-73
2022/05/14 10:12:53;;;;;;;10.30;7.80;;;;;;;22.30;59.95;94635.97;5051985;28;20206;-74
2022/05/14 10:15:40;;;;;;;9.02;7.97;;;;;;;22.43;61.17;94642.59;5051115;28;20223;-76
2022/05/14 10:18:31;;;;;;;9.68;7.43;;;;;;;22.55;57.31;94638.63;5037376;28;20196;-76
2022/05/14 10:21:06;;;;;;;9.90;7.07;;;;;;;22.67;57.32;94641.69;5042102;28;20199;-77
2022/05/14 10:27:12;;;;;;;8.20;6.85;;;;;;;23.13;55.42;94635.06;5050712;28;20367;-78
2022/05/14 10:29:55;;;;;;;11.05;7.22;;;;;;;23.47;55.70;94626.06;5050254;28;20582;-75
2022/05/14 10:32:26;;;;;;;9.68;6.55;;;;;;;24.06;52.40;94630.16;5042026;28;20202;-76
2022/05/14 10:34:59;;;;;;;7.65;6.07;;;;;;;24.57;50.66;94620.06;5037450;28;20215;-76
2022/05/14 10:37:31;;;;;;;8.52;6.20;;;;;;;25.01;49.60;94626.56;5051523;28;20224;-78
2022/05/14 10:40:08;;;;;;;7.75;5.95;;;;;;;26.00;46.88;94610.13;5051382;28;20535;-79
2022/05/14 10:42:44;;;;;;;8.48;7.10;;;;;;;26.33;46.55;94613.84;5038258;28;20188;-76
2022/05/14 10:45:17;;;;;;;12.18;7.75;;;;;;;26.50;48.21;94607.13;5038164;28;20724;-80
2022/05/14 10:47:48;;;;;;;13.80;7.88;;;;;;;26.51;47.96;94594.81;5050610;28;20735;-81
2022/05/14 10:50:19;;;;;;;16.15;8.90;;;;;;;26.94;47.48;94604.94;5050395;28;20239;-80
2022/05/14 10:52:48;;;;;;;12.43;7.95;;;;;;;26.85;46.22;94611.09;5046147;28;20223;-75
2022/05/14 10:55:20;;;;;;;14.48;8.45;;;;;;;26.44;52.44;94614.41;5041815;28;20224;-77
2022/05/14 10:57:54;;;;;;;13.32;9.40;;;;;;;24.90;56.32;94603.72;5051333;28;20203;-79
2022/05/14 11:00:39;;;;;;;11.93;8.95;;;;;;;24.10;58.85;94608.78;5050195;28;20199;-78
2022/05/14 11:03:14;;;;;;;13.15;10.15;;;;;;;23.89;63.14;94603.50;5030962;28;20444;-79
2022/05/14 11:05:55;;;;;;;15.00;10.27;;;;;;;23.83;63.78;94604.38;5048146;28;20650;-80
2022/05/14 11:08:33;;;;;;;14.80;9.48;;;;;;;23.66;63.80;94601.38;5037829;28;20196;-80
2022/05/14 11:11:13;;;;;;;18.52;9.18;;;;;;;23.51;61.96;94599.97;5037869;28;20269;-81
2022/05/14 11:13:40;;;;;;;16.80;9.68;;;;;;;23.32;62.23;94595.78;5051077;28;20251;-81
2022/05/14 11:16:10;;;;;;;8.82;7.50;;;;;;;23.57;59.72;94603.06;5050549;28;20660;-80
2022/05/14 11:18:56;;;;;;;11.13;7.70;;;;;;;24.31;58.45;94591.13;5047863;28;20211;-79
2022/05/14 11:21:36;;;;;;;9.90;7.32;;;;;;;24.64;57.52;94585.91;5043624;28;20207;-80
2022/05/14 11:24:03;;;;;;;11.75;7.38;;;;;;;24.99;58.15;94590.16;5038600;28;20226;-81
2022/05/14 11:26:31;;;;;;;8.82;7.70;;;;;;;25.11;55.75;94586.78;5050197;28;20633;-79
2022/05/14 11:29:01;;;;;;;8.93;7.35;;;;;;;25.20;55.23;94581.47;5041722;28;20208;-80
2022/05/14 11:31:32;;;;;;;10.00;7.60;;;;;;;25.46;57.53;94580.59;5046853;28;20245;-81
2022/05/14 11:34:14;;;;;;;14.18;7.50;;;;;;;25.47;53.68;94581.38;5050906;28;20196;-82
2022/05/14 11:36:48;;;;;;;12.85;7.93;;;;;;;25.79;54.92;94572.50;5045791;28;20215;-80
2022/05/14 11:39:35;;;;;;;8.27;7.25;;;;;;;26.19;51.82;94576.81;5049996;28;20303;-81
2022/05/14 11:42:28;;;;;;;8.10;7.05;;;;;;;26.64;51.54;94562.34;5040692;28;20192;-79
2022/05/14 11:45:00;;;;;;;9.50;6.97;;;;;;;26.31;49.17;94558.72;5047533;28;20195;-81
2022/05/14 11:47:55;;;;;;;8.98;6.80;;;;;;;26.34;51.87;94559.88;5048834;28;20628;-79
2022/05/14 11:50:31;;;;;;;7.57;5.80;;;;;;;26.89;46.42;94550.63;5029357;28;20246;-80
2022/05/14 11:53:24;;;;;;;7.43;5.47;;;;;;;26.98;44.87;94558.38;5030180;28;20188;-77
2022/05/14 11:55:55;;;;;;;8.45;5.03;;;;;;;27.39;43.73;94555.72;5044414;28;20218;-78
2022/05/14 11:58:29;;;;;;;7.35;5.57;;;;;;;27.17;44.84;94563.88;5039238;28;20536;-77
2022/05/14 12:00:58;;;;;;;10.10;5.85;;;;;;;27.12;44.04;94560.81;5049201;28;20206;-77
2022/05/14 12:03:32;;;;;;;6.90;5.03;;;;;;;26.44;43.91;94569.94;5050125;28;20227;-78